Time;durP1;ratioP1;P1;durP2;ratioP2;P2;SDS_P1;SDS_P2;PMS_P1;PMS_P2;Temp;Humidity;BMP_temperature;BMP_pressure;BME280_temperature;BME280_humidity;BME280_pressure;Samples;Min_cycle;Max_cycle;Signal;HPM_P1;HPM_P2
2024/01/14 00:01:16;;;;;;;;;29.25;26.00;;;;;;;;5043394;28;45271;-74
2024/01/14 00:03:42;;;;;;;;;45.25;38.25;;;;;;;;5043181;28;45263;-74
2024/01/14 00:06:07;;;;;;;;;37.50;31.00;;;;;;;;5061141;28;45655;-74
2024/01/14 00:08:32;;;;;;;;;35.00;30.00;;;;;;;;5060817;28;45452;-74
2024/01/14 00:10:57;;;;;;;;;35.00;29.25;;;;;;;;5042857;28;45887;-74
2024/01/14 00:13:22;;;;;;;;;26.75;23.50;;;;;;;;5060761;28;45205;-74
2024/01/14 00:15:48;;;;;;;;;30.50;26.25;;;;;;;;5060654;28;45517;-74
2024/01/14 00:18:13;;;;;;;;;22.25;20.75;;;;;;;;5060604;28;45319;-74
2024/01/14 00:20:38;;;;;;;;;22.00;20.00;;;;;;;;5042517;28;45306;-74
2024/01/14 00:23:03;;;;;;;;;28.50;25.00;;;;;;;;5061084;28;45299;-73
2024/01/14 00:25:29;;;;;;;;;23.00;19.00;;;;;;;;5060988;28;45243;-73
2024/01/14 00:27:55;;;;;;;;;24.00;21.25;;;;;;;;5060738;28;45185;-74
2024/01/14 00:30:20;;;;;;;;;20.00;18.00;;;;;;;;5060812;28;45276;-73
2024/01/14 00:32:45;;;;;;;;;24.50;23.00;;;;;;;;5061027;28;45200;-73
2024/01/14 00:35:10;;;;;;;;;20.25;19.50;;;;;;;;5060541;28;45173;-73
2024/01/14 00:37:35;;;;;;;;;28.50;25.25;;;;;;;;5060678;28;45398;-73
2024/01/14 00:40:00;;;;;;;;;20.50;16.50;;;;;;;;5060742;28;45211;-74
2024/01/14 00:42:26;;;;;;;;;21.00;18.75;;;;;;;;5060726;28;45350;-73
2024/01/14 00:44:51;;;;;;;;;22.25;21.00;;;;;;;;5042346;28;46039;-74
2024/01/14 00:47:16;;;;;;;;;22.75;21.00;;;;;;;;5060476;28;45344;-73
2024/01/14 00:49:41;;;;;;;;;22.25;17.00;;;;;;;;5060487;28;45196;-73
2024/01/14 00:52:07;;;;;;;;;24.50;20.75;;;;;;;;5060324;28;45231;-74
2024/01/14 00:54:32;;;;;;;;;24.25;21.50;;;;;;;;5042275;28;47231;-73
2024/01/14 00:56:57;;;;;;;;;18.25;15.75;;;;;;;;5042173;28;47706;-74
2024/01/14 00:59:22;;;;;;;;;17.75;13.25;;;;;;;;5060494;28;45538;-73
2024/01/14 01:01:48;;;;;;;;;23.50;18.75;;;;;;;;5042418;28;45274;-73
2024/01/14 01:04:13;;;;;;;;;16.25;13.00;;;;;;;;5059462;28;45457;-74
2024/01/14 01:06:38;;;;;;;;;18.00;14.00;;;;;;;;5060210;28;45276;-74
2024/01/14 01:09:03;;;;;;;;;21.75;20.75;;;;;;;;5042017;28;45289;-73
2024/01/14 01:11:28;;;;;;;;;27.00;24.50;;;;;;;;5060362;28;45628;-73
2024/01/14 01:13:53;;;;;;;;;17.25;15.00;;;;;;;;5042007;28;46579;-74
2024/01/14 01:16:19;;;;;;;;;23.75;20.25;;;;;;;;5041867;28;48112;-73
2024/01/14 01:18:44;;;;;;;;;24.75;20.75;;;;;;;;5060114;28;45347;-73
2024/01/14 01:21:09;;;;;;;;;21.00;16.50;;;;;;;;5060155;28;45358;-73
2024/01/14 01:23:34;;;;;;;;;27.50;27.00;;;;;;;;5059851;28;45535;-74
2024/01/14 01:25:59;;;;;;;;;20.75;20.75;;;;;;;;5060124;28;45409;-73
2024/01/14 01:28:25;;;;;;;;;22.25;18.50;;;;;;;;5059984;28;45319;-74
2024/01/14 01:30:50;;;;;;;;;19.00;13.25;;;;;;;;5060343;28;45524;-73
2024/01/14 01:33:15;;;;;;;;;17.75;16.75;;;;;;;;5059880;28;45284;-73
2024/01/14 01:35:40;;;;;;;;;20.50;19.25;;;;;;;;5041546;28;46990;-74
2024/01/14 01:38:06;;;;;;;;;21.00;18.25;;;;;;;;5059590;28;45401;-73
2024/01/14 01:40:31;;;;;;;;;26.75;22.50;;;;;;;;5059936;28;45343;-74
2024/01/14 01:42:56;;;;;;;;;19.25;18.00;;;;;;;;5041654;28;47208;-73
2024/01/14 01:45:21;;;;;;;;;21.25;19.75;;;;;;;;5059506;28;46274;-73
2024/01/14 01:47:47;;;;;;;;;14.00;13.00;;;;;;;;5041591;28;45481;-73
2024/01/14 01:50:12;;;;;;;;;22.25;20.25;;;;;;;;5059668;28;45148;-74
2024/01/14 01:52:38;;;;;;;;;20.75;19.75;;;;;;;;5059071;28;45265;-73
2024/01/14 01:55:04;;;;;;;;;19.50;18.75;;;;;;;;5041454;28;48255;-73
2024/01/14 01:57:30;;;;;;;;;23.00;20.00;;;;;;;;5041138;28;45339;-73
2024/01/14 01:59:55;;;;;;;;;19.50;16.50;;;;;;;;5041612;28;45225;-73
2024/01/14 02:02:21;;;;;;;;;19.75;17.75;;;;;;;;5059617;28;45223;-73
2024/01/14 02:04:47;;;;;;;;;16.50;16.50;;;;;;;;5059358;28;46518;-73
2024/01/14 02:07:12;;;;;;;;;26.25;23.25;;;;;;;;5059341;28;45276;-73
2024/01/14 02:09:37;;;;;;;;;21.75;20.00;;;;;;;;5059654;28;45274;-73
2024/01/14 02:12:03;;;;;;;;;25.50;20.50;;;;;;;;5059316;28;45351;-74
2024/01/14 02:14:28;;;;;;;;;19.00;17.25;;;;;;;;5059039;28;45455;-73
2024/01/14 02:16:53;;;;;;;;;18.25;13.25;;;;;;;;5043899;28;45359;-73
2024/01/14 02:19:18;;;;;;;;;22.75;18.50;;;;;;;;5044603;28;45308;-73
2024/01/14 02:21:49;;;;;;;;;19.50;18.75;;;;;;;;5062721;28;45233;-73
2024/01/14 02:24:23;;;;;;;;;17.75;16.25;;;;;;;;5062759;28;45375;-73
2024/01/14 02:26:48;;;;;;;;;18.75;17.25;;;;;;;;5062755;28;45353;-73
2024/01/14 02:29:13;;;;;;;;;22.75;21.75;;;;;;;;5062782;28;45199;-73
2024/01/14 02:31:39;;;;;;;;;22.25;18.50;;;;;;;;5062740;28;45532;-73
2024/01/14 02:34:06;;;;;;;;;20.25;17.25;;;;;;;;5062488;28;46288;-73
2024/01/14 02:36:32;;;;;;;;;24.50;23.50;;;;;;;;5062288;28;45192;-73
2024/01/14 02:38:57;;;;;;;;;27.25;20.50;;;;;;;;5044455;28;45430;-73
2024/01/14 02:41:22;;;;;;;;;22.00;19.50;;;;;;;;5062430;28;45313;-73
2024/01/14 02:43:47;;;;;;;;;19.75;17.50;;;;;;;;5062603;28;45295;-73
2024/01/14 02:46:12;;;;;;;;;20.25;18.50;;;;;;;;5062516;28;45343;-73
2024/01/14 02:48:37;;;;;;;;;19.50;17.75;;;;;;;;5062576;28;45271;-73
2024/01/14 02:51:03;;;;;;;;;18.75;17.50;;;;;;;;5062525;28;45316;-74
2024/01/14 02:53:28;;;;;;;;;26.00;22.50;;;;;;;;5061828;28;46386;-74
2024/01/14 02:55:53;;;;;;;;;20.00;18.75;;;;;;;;5044060;28;45344;-73
2024/01/14 02:58:18;;;;;;;;;22.50;17.00;;;;;;;;5062380;28;45383;-74
2024/01/14 03:00:43;;;;;;;;;22.75;19.25;;;;;;;;5062317;28;45363;-74
2024/01/14 03:03:08;;;;;;;;;19.50;19.50;;;;;;;;5044080;28;47451;-73
2024/01/14 03:05:34;;;;;;;;;24.75;19.75;;;;;;;;5062103;28;45382;-73
2024/01/14 03:07:59;;;;;;;;;22.50;20.50;;;;;;;;5062208;28;45220;-74
2024/01/14 03:10:25;;;;;;;;;22.50;22.50;;;;;;;;5044045;28;47167;-74
2024/01/14 03:12:50;;;;;;;;;25.75;22.75;;;;;;;;5061998;28;46321;-74
2024/01/14 03:15:15;;;;;;;;;26.25;21.25;;;;;;;;5043985;28;45263;-73
2024/01/14 03:17:40;;;;;;;;;28.25;23.00;;;;;;;;5043882;28;45425;-73
2024/01/14 03:20:07;;;;;;;;;21.25;19.75;;;;;;;;5043579;28;47232;-74
2024/01/14 03:22:32;;;;;;;;;31.25;21.75;;;;;;;;5061682;28;46070;-73
2024/01/14 03:24:57;;;;;;;;;22.75;21.25;;;;;;;;5061819;28;45430;-73
2024/01/14 03:27:22;;;;;;;;;23.00;19.75;;;;;;;;5061450;28;45275;-73
2024/01/14 03:29:47;;;;;;;;;21.25;21.25;;;;;;;;5043619;28;46264;-73
2024/01/14 03:32:12;;;;;;;;;21.50;20.00;;;;;;;;5061798;28;45982;-73
2024/01/14 03:34:38;;;;;;;;;23.00;20.50;;;;;;;;5061681;28;45317;-73
2024/01/14 03:37:03;;;;;;;;;18.75;16.50;;;;;;;;5061524;28;45212;-73
2024/01/14 03:39:28;;;;;;;;;22.50;22.50;;;;;;;;5061649;28;45159;-73
2024/01/14 03:41:53;;;;;;;;;26.75;19.75;;;;;;;;5061501;28;45296;-74
2024/01/14 03:44:19;;;;;;;;;24.50;22.50;;;;;;;;5061718;28;45218;-73
2024/01/14 03:46:44;;;;;;;;;21.75;20.50;;;;;;;;5061549;28;45438;-73
2024/01/14 03:49:09;;;;;;;;;23.00;22.50;;;;;;;;5043125;28;45848;-75
2024/01/14 03:51:34;;;;;;;;;28.25;20.75;;;;;;;;5061187;28;46435;-74
2024/01/14 03:54:00;;;;;;;;;24.25;23.50;;;;;;;;5039720;28;45460;-73
2024/01/14 03:56:25;;;;;;;;;18.75;18.75;;;;;;;;5041187;28;45257;-73
2024/01/14 03:58:50;;;;;;;;;22.75;20.25;;;;;;;;5021319;28;45218;-74
2024/01/14 04:01:17;;;;;;;;;25.25;23.75;;;;;;;;5021285;28;46342;-73
2024/01/14 04:03:42;;;;;;;;;23.75;20.00;;;;;;;;5021235;28;45330;-73
2024/01/14 04:06:08;;;;;;;;;26.00;21.50;;;;;;;;5021210;28;45355;-74
2024/01/14 04:08:33;;;;;;;;;22.00;19.50;;;;;;;;5021131;28;45344;-73
2024/01/14 04:10:58;;;;;;;;;25.50;18.75;;;;;;;;5020939;28;46030;-74
2024/01/14 04:13:23;;;;;;;;;27.25;25.75;;;;;;;;5020987;28;45311;-74
2024/01/14 04:15:49;;;;;;;;;22.50;22.50;;;;;;;;5021187;28;45407;-73
2024/01/14 04:18:14;;;;;;;;;24.25;23.00;;;;;;;;5020899;28;45487;-73
2024/01/14 04:20:39;;;;;;;;;20.75;13.00;;;;;;;;5020660;28;45387;-73
2024/01/14 04:23:04;;;;;;;;;24.50;20.00;;;;;;;;5020632;28;45490;-73
2024/01/14 04:25:29;;;;;;;;;23.50;19.50;;;;;;;;5020966;28;45258;-73
2024/01/14 04:27:55;;;;;;;;;25.25;23.00;;;;;;;;5019485;28;46952;-73
2024/01/14 04:30:20;;;;;;;;;23.50;19.75;;;;;;;;5019301;28;48210;-73
2024/01/14 04:32:45;;;;;;;;;25.75;25.25;;;;;;;;5020727;28;45365;-73
2024/01/14 04:35:10;;;;;;;;;24.50;24.25;;;;;;;;5020729;28;45402;-73
2024/01/14 04:37:35;;;;;;;;;31.00;27.00;;;;;;;;5019428;28;45246;-73
2024/01/14 04:40:01;;;;;;;;;25.25;22.00;;;;;;;;5020624;28;45425;-73
2024/01/14 04:42:26;;;;;;;;;25.25;23.50;;;;;;;;5019394;28;45497;-73
2024/01/14 04:44:52;;;;;;;;;26.00;24.50;;;;;;;;5020404;28;45303;-73
2024/01/14 04:47:17;;;;;;;;;26.75;20.75;;;;;;;;5020342;28;45223;-73
2024/01/14 04:49:42;;;;;;;;;30.50;23.25;;;;;;;;5019055;28;47515;-73
2024/01/14 04:52:07;;;;;;;;;22.50;20.25;;;;;;;;5021347;28;45128;-73
2024/01/14 04:54:34;;;;;;;;;34.50;19.75;;;;;;;;5060583;28;45324;-73
2024/01/14 04:56:59;;;;;;;;;24.00;19.25;;;;;;;;5059765;28;45339;-73
2024/01/14 04:59:24;;;;;;;;;19.00;17.00;;;;;;;;5060274;28;45465;-73
2024/01/14 05:01:49;;;;;;;;;28.00;25.25;;;;;;;;5060212;28;45359;-73
2024/01/14 05:04:14;;;;;;;;;34.00;24.25;;;;;;;;5060338;28;45213;-73
2024/01/14 05:06:39;;;;;;;;;24.50;21.25;;;;;;;;5060075;28;45355;-73
2024/01/14 05:09:05;;;;;;;;;27.25;22.50;;;;;;;;5060178;28;45205;-73
2024/01/14 05:11:30;;;;;;;;;31.25;25.25;;;;;;;;5060240;28;45128;-73
2024/01/14 05:13:55;;;;;;;;;25.50;24.25;;;;;;;;5060272;28;45575;-74
2024/01/14 05:16:20;;;;;;;;;24.75;22.25;;;;;;;;5062224;28;45193;-73
2024/01/14 05:18:46;;;;;;;;;24.25;21.50;;;;;;;;5080241;28;46236;-73
2024/01/14 05:21:16;;;;;;;;;18.50;17.50;;;;;;;;5079814;28;45193;-73
2024/01/14 05:23:41;;;;;;;;;20.50;18.00;;;;;;;;5058418;28;45338;-73
2024/01/14 05:26:06;;;;;;;;;23.00;21.25;;;;;;;;5039802;28;45351;-73
2024/01/14 05:28:31;;;;;;;;;23.50;22.00;;;;;;;;5038363;28;48530;-73
2024/01/14 05:30:56;;;;;;;;;24.50;20.50;;;;;;;;5039899;28;45375;-73
2024/01/14 05:33:21;;;;;;;;;23.50;20.75;;;;;;;;5039793;28;45580;-73
2024/01/14 05:35:47;;;;;;;;;25.75;20.50;;;;;;;;5039685;28;45406;-73
2024/01/14 05:38:12;;;;;;;;;21.50;18.50;;;;;;;;5038196;28;47009;-74
2024/01/14 05:40:37;;;;;;;;;24.25;23.75;;;;;;;;5039726;28;45305;-73
2024/01/14 05:43:02;;;;;;;;;28.25;21.00;;;;;;;;5039843;28;45370;-73
2024/01/14 05:45:27;;;;;;;;;26.25;24.00;;;;;;;;5039300;28;45457;-73
2024/01/14 05:47:52;;;;;;;;;27.75;24.00;;;;;;;;5039503;28;46057;-73
2024/01/14 05:50:18;;;;;;;;;25.75;21.00;;;;;;;;5037645;28;45347;-73
2024/01/14 05:52:43;;;;;;;;;27.50;22.50;;;;;;;;5039306;28;45333;-73
2024/01/14 05:55:08;;;;;;;;;28.75;26.25;;;;;;;;5039365;28;45475;-73
2024/01/14 05:57:33;;;;;;;;;24.25;23.25;;;;;;;;5048844;28;45449;-74
2024/01/14 05:59:58;;;;;;;;;27.00;24.50;;;;;;;;5059574;28;45386;-73
2024/01/14 06:02:24;;;;;;;;;23.25;20.75;;;;;;;;5059828;28;45227;-73
2024/01/14 06:04:49;;;;;;;;;27.00;23.00;;;;;;;;5059407;28;45375;-73
2024/01/14 06:07:14;;;;;;;;;23.00;20.50;;;;;;;;5040722;28;48108;-74
2024/01/14 06:09:39;;;;;;;;;28.50;27.00;;;;;;;;5052262;28;45531;-74
2024/01/14 06:12:04;;;;;;;;;27.00;23.50;;;;;;;;5060713;28;45379;-74
2024/01/14 06:14:30;;;;;;;;;25.75;22.00;;;;;;;;5052627;28;45239;-73
2024/01/14 06:16:55;;;;;;;;;25.75;23.25;;;;;;;;5038903;28;45290;-73
2024/01/14 06:19:20;;;;;;;;;20.00;17.50;;;;;;;;5038956;28;45308;-73
2024/01/14 06:21:45;;;;;;;;;23.50;21.75;;;;;;;;5039072;28;45352;-74
2024/01/14 06:24:12;;;;;;;;;23.25;21.50;;;;;;;;5039007;28;45129;-74
2024/01/14 06:26:38;;;;;;;;;27.50;27.50;;;;;;;;5039040;28;46318;-74
2024/01/14 06:29:03;;;;;;;;;29.75;25.25;;;;;;;;5038794;28;45251;-73
2024/01/14 06:31:28;;;;;;;;;25.50;20.75;;;;;;;;5037652;28;45297;-73
2024/01/14 06:33:53;;;;;;;;;26.25;22.75;;;;;;;;5038691;28;45501;-74
2024/01/14 06:36:19;;;;;;;;;23.25;19.75;;;;;;;;5037303;28;47267;-74
2024/01/14 06:38:44;;;;;;;;;19.75;17.50;;;;;;;;5038954;28;45535;-73
2024/01/14 06:41:15;;;;;;;;;27.50;23.50;;;;;;;;5048794;28;45271;-76
2024/01/14 06:43:40;;;;;;;;;24.50;20.25;;;;;;;;5061347;28;45348;-74
2024/01/14 06:46:06;;;;;;;;;25.25;23.25;;;;;;;;5058880;28;46181;-73
2024/01/14 06:48:31;;;;;;;;;25.00;24.25;;;;;;;;5059147;28;45191;-75
2024/01/14 06:50:56;;;;;;;;;25.75;21.25;;;;;;;;5059039;28;45284;-74
2024/01/14 06:53:21;;;;;;;;;24.00;21.50;;;;;;;;5058709;28;45159;-73
2024/01/14 06:55:46;;;;;;;;;25.50;25.25;;;;;;;;5059014;28;46656;-74
2024/01/14 06:58:12;;;;;;;;;20.50;17.75;;;;;;;;5043703;28;45161;-74
2024/01/14 07:00:37;;;;;;;;;20.25;19.00;;;;;;;;5039193;28;45201;-75
2024/01/14 07:03:02;;;;;;;;;25.25;24.75;;;;;;;;5024193;28;45522;-75
2024/01/14 07:05:27;;;;;;;;;29.00;24.00;;;;;;;;5041804;28;46205;-74
2024/01/14 07:07:52;;;;;;;;;26.50;24.00;;;;;;;;5041980;28;45351;-75
2024/01/14 07:10:18;;;;;;;;;25.50;22.00;;;;;;;;5042273;28;45272;-75
2024/01/14 07:12:43;;;;;;;;;24.75;22.75;;;;;;;;5041889;28;45485;-74
2024/01/14 07:15:08;;;;;;;;;25.25;23.50;;;;;;;;5041830;28;45352;-74
2024/01/14 07:17:33;;;;;;;;;23.50;22.75;;;;;;;;5041570;28;45330;-73
2024/01/14 07:20:01;;;;;;;;;22.00;19.50;;;;;;;;5040245;28;45352;-74
2024/01/14 07:22:26;;;;;;;;;27.25;25.00;;;;;;;;5039972;28;45355;-73
2024/01/14 07:24:51;;;;;;;;;24.00;20.50;;;;;;;;5040769;28;45353;-73
2024/01/14 07:27:16;;;;;;;;;27.25;23.50;;;;;;;;5041160;28;45265;-75
2024/01/14 07:29:41;;;;;;;;;28.00;23.50;;;;;;;;5057932;28;45253;-73
2024/01/14 07:32:07;;;;;;;;;19.00;18.25;;;;;;;;5063483;27;46000;-73
2024/01/14 07:34:32;;;;;;;;;19.75;18.25;;;;;;;;5081606;28;46110;-73
2024/01/14 07:36:57;;;;;;;;;29.75;25.00;;;;;;;;5063640;28;45629;-73
2024/01/14 07:39:22;;;;;;;;;22.25;19.25;;;;;;;;5069772;28;45386;-74
2024/01/14 07:41:48;;;;;;;;;24.00;23.50;;;;;;;;5061361;28;45533;-74
2024/01/14 07:44:13;;;;;;;;;26.25;23.00;;;;;;;;5061312;28;45266;-73
2024/01/14 07:46:38;;;;;;;;;21.50;21.00;;;;;;;;5059960;28;45727;-73
2024/01/14 07:49:03;;;;;;;;;24.50;23.25;;;;;;;;5061566;28;45364;-73
2024/01/14 07:51:29;;;;;;;;;24.25;23.50;;;;;;;;5059944;28;45993;-73
2024/01/14 07:53:54;;;;;;;;;21.75;20.75;;;;;;;;5061149;28;46281;-73
2024/01/14 07:56:19;;;;;;;;;22.50;21.75;;;;;;;;5061429;28;45331;-75
2024/01/14 07:58:45;;;;;;;;;27.00;24.25;;;;;;;;5062879;28;45378;-75
2024/01/14 08:01:10;;;;;;;;;21.00;20.00;;;;;;;;5044834;28;46440;-75
2024/01/14 08:03:35;;;;;;;;;34.25;27.25;;;;;;;;5037945;28;47899;-75
2024/01/14 08:06:01;;;;;;;;;21.25;15.25;;;;;;;;5076064;28;45329;-75
2024/01/14 08:08:26;;;;;;;;;21.75;19.50;;;;;;;;5066283;28;45275;-76
2024/01/14 08:10:51;;;;;;;;;24.00;22.00;;;;;;;;5091885;28;45311;-76
2024/01/14 08:13:16;;;;;;;;;25.00;24.50;;;;;;;;5057748;28;48472;-77
2024/01/14 08:15:42;;;;;;;;;20.75;20.75;;;;;;;;5049790;28;45266;-78
2024/01/14 08:18:08;;;;;;;;;23.75;19.00;;;;;;;;5067519;28;45262;-79
2024/01/14 08:20:33;;;;;;;;;21.75;18.50;;;;;;;;5051991;28;47169;-78
2024/01/14 08:22:58;;;;;;;;;24.75;23.00;;;;;;;;5070885;28;45706;-76
2024/01/14 08:25:26;;;;;;;;;16.00;14.75;;;;;;;;5063707;28;45385;-77
2024/01/14 08:27:53;;;;;;;;;17.75;16.25;;;;;;;;5051925;28;45318;-76
2024/01/14 08:30:19;;;;;;;;;18.50;16.75;;;;;;;;5060657;28;45396;-76
2024/01/14 08:32:44;;;;;;;;;20.00;18.25;;;;;;;;5046471;28;47826;-76
2024/01/14 08:35:13;;;;;;;;;20.50;19.25;;;;;;;;5070409;28;45486;-76
2024/01/14 08:37:40;;;;;;;;;22.00;20.00;;;;;;;;5081487;28;45736;-75
2024/01/14 08:40:06;;;;;;;;;25.50;21.00;;;;;;;;5086467;28;45451;-77
2024/01/14 08:42:31;;;;;;;;;19.50;18.25;;;;;;;;5085376;28;45405;-75
2024/01/14 08:44:57;;;;;;;;;24.00;22.25;;;;;;;;5084635;28;45300;-75
2024/01/14 08:47:22;;;;;;;;;23.75;23.75;;;;;;;;5083473;28;45299;-76
2024/01/14 08:49:47;;;;;;;;;29.50;26.50;;;;;;;;5083830;28;45543;-75
2024/01/14 08:52:12;;;;;;;;;21.50;21.50;;;;;;;;5068393;28;46615;-75
2024/01/14 08:54:37;;;;;;;;;22.50;20.25;;;;;;;;5047456;28;45298;-75
2024/01/14 08:57:02;;;;;;;;;26.25;24.00;;;;;;;;5072827;27;45391;-74
2024/01/14 08:59:28;;;;;;;;;28.50;25.75;;;;;;;;5053707;28;47233;-75
2024/01/14 09:01:53;;;;;;;;;25.00;24.50;;;;;;;;5047432;28;47050;-75
2024/01/14 09:04:18;;;;;;;;;27.25;20.00;;;;;;;;5078252;28;45227;-76
2024/01/14 09:06:44;;;;;;;;;22.25;20.50;;;;;;;;5092171;28;45300;-76
2024/01/14 09:09:09;;;;;;;;;28.25;23.75;;;;;;;;5086287;28;45344;-76
2024/01/14 09:11:34;;;;;;;;;25.75;20.00;;;;;;;;5074380;28;45187;-75
2024/01/14 09:13:59;;;;;;;;;26.25;24.00;;;;;;;;5056595;28;45342;-76
2024/01/14 09:16:25;;;;;;;;;24.25;22.75;;;;;;;;5056440;28;45328;-75
2024/01/14 09:18:50;;;;;;;;;18.75;17.25;;;;;;;;5079526;28;45178;-76
2024/01/14 09:21:15;;;;;;;;;28.75;24.50;;;;;;;;5073585;28;45076;-75
2024/01/14 09:23:40;;;;;;;;;28.25;26.50;;;;;;;;5084224;28;45206;-75
2024/01/14 09:26:06;;;;;;;;;27.50;23.25;;;;;;;;5088913;28;45189;-74
2024/01/14 09:28:32;;;;;;;;;29.25;26.50;;;;;;;;5084505;28;45272;-74
2024/01/14 09:30:57;;;;;;;;;22.00;21.25;;;;;;;;5065787;28;47943;-74
2024/01/14 09:33:22;;;;;;;;;36.50;28.00;;;;;;;;5063979;28;45919;-74
2024/01/14 09:35:47;;;;;;;;;22.50;18.75;;;;;;;;5080500;28;45186;-75
2024/01/14 09:38:12;;;;;;;;;33.25;27.75;;;;;;;;5054485;28;46390;-74
2024/01/14 09:40:38;;;;;;;;;33.00;28.25;;;;;;;;5049519;28;47096;-74
2024/01/14 09:43:06;;;;;;;;;36.50;30.00;;;;;;;;5066784;28;45647;-74
2024/01/14 09:45:39;;;;;;;;;32.00;31.00;;;;;;;;5077311;28;45455;-74
2024/01/14 09:48:04;;;;;;;;;32.00;25.50;;;;;;;;5079889;28;45612;-75
2024/01/14 09:50:30;;;;;;;;;39.25;35.00;;;;;;;;5060331;28;48349;-75
2024/01/14 09:52:55;;;;;;;;;23.75;22.75;;;;;;;;5059966;28;45549;-76
2024/01/14 09:55:20;;;;;;;;;30.00;22.75;;;;;;;;5044830;28;45463;-75
2024/01/14 09:57:47;;;;;;;;;32.50;25.00;;;;;;;;5063466;28;45387;-74
2024/01/14 10:00:13;;;;;;;;;35.00;30.50;;;;;;;;5062551;28;46451;-75
2024/01/14 10:02:39;;;;;;;;;32.25;28.50;;;;;;;;5057379;28;45564;-75
2024/01/14 10:05:04;;;;;;;;;27.50;22.50;;;;;;;;5059166;28;45204;-75
2024/01/14 10:07:30;;;;;;;;;27.25;22.50;;;;;;;;5046589;28;46155;-75
2024/01/14 10:09:55;;;;;;;;;33.00;28.75;;;;;;;;5050928;28;45396;-75
2024/01/14 10:12:21;;;;;;;;;28.00;25.50;;;;;;;;5050491;28;45627;-75
2024/01/14 10:14:56;;;;;;;;;33.25;30.25;;;;;;;;5060179;28;45304;-75
2024/01/14 10:17:21;;;;;;;;;30.00;27.50;;;;;;;;5067756;28;45421;-74
2024/01/14 10:19:51;;;;;;;;;28.25;24.50;;;;;;;;5064130;28;45349;-75
2024/01/14 10:22:16;;;;;;;;;30.75;28.00;;;;;;;;5043471;28;45806;-75
2024/01/14 10:24:41;;;;;;;;;29.75;24.75;;;;;;;;5047013;28;45422;-75
2024/01/14 10:27:07;;;;;;;;;27.75;27.75;;;;;;;;5049388;28;46219;-74
2024/01/14 10:29:32;;;;;;;;;35.50;32.00;;;;;;;;5063894;28;45344;-74
2024/01/14 10:31:57;;;;;;;;;34.00;25.50;;;;;;;;5064281;28;45402;-75
2024/01/14 10:34:23;;;;;;;;;30.75;30.00;;;;;;;;5040061;28;45464;-74
2024/01/14 10:36:49;;;;;;;;;31.50;28.25;;;;;;;;5049786;28;47478;-74
2024/01/14 10:39:14;;;;;;;;;30.25;25.50;;;;;;;;5063191;27;47924;-74
2024/01/14 10:41:39;;;;;;;;;35.75;31.00;;;;;;;;5082075;28;45601;-74
2024/01/14 10:44:04;;;;;;;;;37.00;30.75;;;;;;;;5079732;28;45378;-76
2024/01/14 10:46:32;;;;;;;;;31.50;29.75;;;;;;;;5052705;28;47035;-75
2024/01/14 10:49:05;;;;;;;;;35.50;32.25;;;;;;;;5042784;28;47112;-74
2024/01/14 10:51:30;;;;;;;;;33.50;32.75;;;;;;;;5063605;28;45309;-74
2024/01/14 10:54:12;;;;;;;;;34.25;32.00;;;;;;;;5062723;28;45268;-74
2024/01/14 10:56:39;;;;;;;;;32.50;29.75;;;;;;;;5067551;28;45518;-74
2024/01/14 10:59:07;;;;;;;;;47.00;42.50;;;;;;;;5068879;28;46224;-75
2024/01/14 11:01:34;;;;;;;;;39.75;36.00;;;;;;;;5067183;28;45359;-74
2024/01/14 11:04:00;;;;;;;;;46.75;40.00;;;;;;;;5049120;28;45364;-74
2024/01/14 11:06:25;;;;;;;;;39.75;37.00;;;;;;;;5066010;28;46185;-75
2024/01/14 11:08:53;;;;;;;;;41.25;35.50;;;;;;;;5086529;28;45704;-74
2024/01/14 11:11:22;;;;;;;;;43.75;40.25;;;;;;;;5090360;28;45637;-77
2024/01/14 11:13:52;;;;;;;;;43.75;39.00;;;;;;;;5090346;28;45321;-77
2024/01/14 11:16:41;;;;;;;;;36.50;32.50;;;;;;;;5070889;28;46045;-76
2024/01/14 11:19:10;;;;;;;;;51.75;39.25;;;;;;;;5073931;28;47518;-77
2024/01/14 11:21:54;;;;;;;;;48.75;40.50;;;;;;;;5068776;28;45486;-77
2024/01/14 11:24:20;;;;;;;;;32.75;31.50;;;;;;;;5091671;28;45478;-76
2024/01/14 11:26:46;;;;;;;;;38.00;36.75;;;;;;;;5071500;28;47540;-76
2024/01/14 11:29:11;;;;;;;;;41.25;35.75;;;;;;;;5085454;28;46119;-75
2024/01/14 11:31:55;;;;;;;;;44.00;39.50;;;;;;;;5082300;28;45375;-75
2024/01/14 11:34:39;;;;;;;;;43.50;39.00;;;;;;;;5082942;28;45473;-76
2024/01/14 11:37:05;;;;;;;;;53.50;42.25;;;;;;;;5089064;27;45286;-77
2024/01/14 11:39:30;;;;;;;;;48.25;41.00;;;;;;;;5068414;28;47396;-76
2024/01/14 11:41:55;;;;;;;;;48.50;41.75;;;;;;;;5069559;28;45387;-75
2024/01/14 11:44:29;;;;;;;;;45.50;38.50;;;;;;;;5063909;28;45435;-78
2024/01/14 11:46:54;;;;;;;;;49.00;41.00;;;;;;;;5025146;28;46668;-77
2024/01/14 11:49:22;;;;;;;;;50.25;42.25;;;;;;;;5063923;28;46965;-76
2024/01/14 11:51:53;;;;;;;;;43.00;35.25;;;;;;;;5087830;28;45248;-76
2024/01/14 11:54:21;;;;;;;;;53.75;42.50;;;;;;;;5057219;28;45257;-76
2024/01/14 11:56:46;;;;;;;;;44.75;38.50;;;;;;;;5066702;28;45270;-74
2024/01/14 11:59:13;;;;;;;;;31.75;27.50;;;;;;;;5043065;28;46277;-75
2024/01/14 12:01:38;;;;;;;;;55.00;40.75;;;;;;;;5060208;28;45473;-76
2024/01/14 12:04:04;;;;;;;;;43.50;35.00;;;;;;;;5065779;28;44730;-75
2024/01/14 12:06:43;;;;;;;;;53.25;43.25;;;;;;;;5065695;28;45409;-77
2024/01/14 12:09:09;;;;;;;;;44.00;40.25;;;;;;;;5065905;28;46438;-75
2024/01/14 12:11:34;;;;;;;;;46.25;41.75;;;;;;;;5073939;28;45402;-76
2024/01/14 12:14:00;;;;;;;;;43.25;39.00;;;;;;;;5073351;28;46430;-76
2024/01/14 12:16:25;;;;;;;;;52.00;43.25;;;;;;;;5074836;28;45823;-77
2024/01/14 12:18:50;;;;;;;;;34.75;32.50;;;;;;;;5068759;28;45691;-75
2024/01/14 12:21:17;;;;;;;;;52.50;44.00;;;;;;;;5069719;28;45379;-75
2024/01/14 12:23:42;;;;;;;;;55.50;43.00;;;;;;;;5063555;27;45434;-74
2024/01/14 12:26:08;;;;;;;;;52.00;43.75;;;;;;;;5079981;28;45445;-75
2024/01/14 12:28:33;;;;;;;;;53.75;41.75;;;;;;;;5079398;28;45308;-75
2024/01/14 12:30:59;;;;;;;;;52.75;42.50;;;;;;;;5080687;28;45252;-75
2024/01/14 12:33:24;;;;;;;;;57.75;45.00;;;;;;;;5076875;28;45293;-75
2024/01/14 12:35:50;;;;;;;;;53.00;46.25;;;;;;;;5046942;28;46022;-75
2024/01/14 12:38:16;;;;;;;;;50.75;45.25;;;;;;;;5059949;28;45273;-75
2024/01/14 12:40:41;;;;;;;;;62.75;45.75;;;;;;;;5062177;28;45272;-76
2024/01/14 12:43:07;;;;;;;;;55.75;44.75;;;;;;;;5068570;28;45356;-75
2024/01/14 12:45:33;;;;;;;;;55.75;44.50;;;;;;;;5060878;28;47075;-75
2024/01/14 12:47:59;;;;;;;;;47.75;41.75;;;;;;;;5059837;28;47319;-76
2024/01/14 12:50:25;;;;;;;;;49.25;44.00;;;;;;;;5080639;28;45880;-76
2024/01/14 12:52:55;;;;;;;;;58.50;45.25;;;;;;;;5039164;28;45415;-75
2024/01/14 12:55:21;;;;;;;;;38.25;33.00;;;;;;;;5038518;28;45308;-76
2024/01/14 12:57:46;;;;;;;;;54.25;45.50;;;;;;;;5037832;28;45358;-75
2024/01/14 13:00:11;;;;;;;;;47.25;42.25;;;;;;;;5038131;28;45399;-76
2024/01/14 13:02:36;;;;;;;;;55.75;43.50;;;;;;;;5037875;28;45412;-76
2024/01/14 13:05:03;;;;;;;;;63.75;49.50;;;;;;;;5039214;28;45671;-76
2024/01/14 13:07:28;;;;;;;;;55.00;47.00;;;;;;;;5037940;28;48254;-78
2024/01/14 13:09:53;;;;;;;;;51.50;41.25;;;;;;;;5041748;28;45432;-75
2024/01/14 13:12:18;;;;;;;;;65.00;51.50;;;;;;;;5051591;28;45340;-76
2024/01/14 13:14:44;;;;;;;;;57.25;45.00;;;;;;;;5038740;28;45612;-75
2024/01/14 13:17:09;;;;;;;;;42.25;38.75;;;;;;;;5046799;28;48226;-76
2024/01/14 13:19:34;;;;;;;;;61.50;48.25;;;;;;;;5059104;28;45447;-76
2024/01/14 13:21:59;;;;;;;;;57.75;48.25;;;;;;;;5058979;28;45465;-77
2024/01/14 13:24:24;;;;;;;;;60.25;49.00;;;;;;;;5052928;28;45461;-76
2024/01/14 13:26:50;;;;;;;;;63.50;50.25;;;;;;;;5037557;28;45313;-76
2024/01/14 13:29:15;;;;;;;;;79.25;61.75;;;;;;;;5037229;28;45594;-77
2024/01/14 13:31:41;;;;;;;;;66.50;51.50;;;;;;;;5039242;28;45374;-76
2024/01/14 13:34:06;;;;;;;;;59.50;48.00;;;;;;;;5037828;28;47018;-76
2024/01/14 13:36:31;;;;;;;;;62.75;51.75;;;;;;;;5045416;28;48483;-75
2024/01/14 13:39:00;;;;;;;;;54.75;45.00;;;;;;;;5048988;28;45359;-75
2024/01/14 13:41:26;;;;;;;;;72.75;56.75;;;;;;;;5041854;28;45291;-75
2024/01/14 13:43:51;;;;;;;;;62.00;50.75;;;;;;;;5043211;28;45220;-75
2024/01/14 13:46:16;;;;;;;;;65.25;52.25;;;;;;;;5047184;28;46302;-75
2024/01/14 13:48:41;;;;;;;;;69.75;55.00;;;;;;;;5049099;28;44596;-76
2024/01/14 13:51:06;;;;;;;;;60.50;47.00;;;;;;;;5051338;28;45210;-75
2024/01/14 13:53:31;;;;;;;;;66.75;51.75;;;;;;;;5061873;28;45263;-75
2024/01/14 13:55:57;;;;;;;;;62.25;48.00;;;;;;;;5051255;28;47408;-76
2024/01/14 13:58:22;;;;;;;;;61.50;49.25;;;;;;;;5048403;28;45769;-75
2024/01/14 14:00:47;;;;;;;;;65.00;50.75;;;;;;;;5075745;28;45301;-77
2024/01/14 14:03:12;;;;;;;;;56.00;44.25;;;;;;;;5081572;28;45406;-76
2024/01/14 14:05:37;;;;;;;;;63.75;52.00;;;;;;;;5069852;28;45274;-75
2024/01/14 14:08:03;;;;;;;;;61.25;50.75;;;;;;;;5073700;28;45186;-76